Time;durP1;ratioP1;P1;durP2;ratioP2;P2;SDS_P1;SDS_P2;PMS_P1;PMS_P2;Temp;Humidity;BMP_temperature;BMP_pressure;BME280_temperature;BME280_humidity;BME280_pressure;Samples;Min_cycle;Max_cycle;Signal;HPM_P1;HPM_P2
2024/03/20 00:00:14;;;;;;;20.88;12.30;;;;;;;8.31;100.00;100714.19;5092565;28;20734;-76
2024/03/20 00:02:41;;;;;;;21.10;12.85;;;;;;;8.45;100.00;100738.38;5090145;28;20543;-70
2024/03/20 00:05:09;;;;;;;22.77;12.55;;;;;;;8.46;100.00;100733.97;5098201;27;20082;-70
2024/03/20 00:07:36;;;;;;;20.27;12.20;;;;;;;8.48;100.00;100738.28;5076046;28;20066;-70
2024/03/20 00:10:03;;;;;;;26.98;14.10;;;;;;;8.45;100.00;100741.03;5097497;28;20129;-72
2024/03/20 00:12:30;;;;;;;22.85;13.55;;;;;;;8.41;100.00;100731.47;5110374;28;20125;-71
2024/03/20 00:14:58;;;;;;;19.73;12.55;;;;;;;8.40;100.00;100732.38;5097699;27;20082;-71
2024/03/20 00:17:25;;;;;;;23.45;13.57;;;;;;;8.39;100.00;100730.66;5095789;28;20069;-71
2024/03/20 00:19:54;;;;;;;19.88;12.70;;;;;;;8.21;100.00;100700.41;5093116;27;20081;-76
2024/03/20 00:22:21;;;;;;;19.40;12.52;;;;;;;8.38;100.00;100735.06;5092167;28;20126;-70
2024/03/20 00:24:47;;;;;;;24.30;13.38;;;;;;;8.34;100.00;100730.78;5094574;27;20160;-71
2024/03/20 00:27:15;;;;;;;23.33;13.55;;;;;;;8.40;100.00;100733.25;5094169;27;20367;-72
2024/03/20 00:29:42;;;;;;;19.90;12.63;;;;;;;8.36;100.00;100741.31;5113741;27;20085;-71
2024/03/20 00:32:09;;;;;;;19.23;12.32;;;;;;;8.33;100.00;100738.78;5073353;27;20043;-71
2024/03/20 00:34:37;;;;;;;22.20;13.23;;;;;;;8.31;100.00;100737.94;5114143;27;20130;-71
2024/03/20 00:37:06;;;;;;;20.40;12.77;;;;;;;8.28;100.00;100733.63;5111884;27;20113;-70
2024/03/20 00:39:34;;;;;;;23.17;14.05;;;;;;;8.23;100.00;100735.53;5093666;27;20067;-70
2024/03/20 00:42:00;;;;;;;23.80;13.73;;;;;;;8.21;100.00;100728.56;5089315;27;20071;-70
2024/03/20 00:44:27;;;;;;;17.98;11.63;;;;;;;8.17;100.00;100735.75;5113038;27;20090;-71
2024/03/20 00:46:54;;;;;;;19.65;12.88;;;;;;;8.11;100.00;100728.00;5111182;27;20039;-71
2024/03/20 00:49:20;;;;;;;19.02;11.77;;;;;;;8.14;100.00;100729.69;5101425;27;20131;-70
2024/03/20 00:51:47;;;;;;;20.10;12.18;;;;;;;8.14;100.00;100727.06;5108774;27;20066;-71
2024/03/20 00:54:15;;;;;;;19.33;12.40;;;;;;;8.15;100.00;100728.78;5097781;27;20067;-72
2024/03/20 00:56:42;;;;;;;19.95;12.07;;;;;;;8.18;100.00;100728.69;5111275;27;20078;-72
2024/03/20 00:59:09;;;;;;;17.52;11.75;;;;;;;8.20;100.00;100722.44;5094033;27;20531;-71
2024/03/20 01:01:36;;;;;;;19.48;12.63;;;;;;;8.12;100.00;100721.81;5091551;27;20126;-71
2024/03/20 01:04:02;;;;;;;22.00;13.27;;;;;;;8.13;100.00;100727.97;5096273;27;20043;-71
2024/03/20 01:06:30;;;;;;;24.02;13.68;;;;;;;8.04;100.00;100724.69;5113680;27;20126;-70
2024/03/20 01:08:57;;;;;;;25.65;13.55;;;;;;;8.02;100.00;100730.94;5112062;27;20067;-70
2024/03/20 01:11:25;;;;;;;24.30;13.38;;;;;;;8.00;100.00;100727.50;5108980;27;20047;-70
2024/03/20 01:13:52;;;;;;;20.05;12.85;;;;;;;7.99;100.00;100731.91;5097556;27;20071;-72
2024/03/20 01:16:19;;;;;;;25.50;13.50;;;;;;;7.95;100.00;100730.25;5099867;27;20063;-70
2024/03/20 01:18:46;;;;;;;21.05;13.43;;;;;;;7.73;100.00;100703.69;5114622;27;20066;-70
2024/03/20 01:21:13;;;;;;;22.90;13.63;;;;;;;7.73;100.00;100708.09;5110694;27;20069;-79
2024/03/20 01:23:39;;;;;;;25.20;13.65;;;;;;;7.81;100.00;100724.56;5093164;27;20043;-70
2024/03/20 01:26:06;;;;;;;21.38;12.75;;;;;;;7.77;100.00;100728.19;5111046;27;20134;-72
2024/03/20 01:28:38;;;;;;;18.08;12.55;;;;;;;7.72;100.00;100723.03;5095410;27;20043;-73
2024/03/20 01:31:07;;;;;;;22.67;12.93;;;;;;;7.67;100.00;100722.34;5094061;27;20082;-73
2024/03/20 01:33:33;;;;;;;21.33;12.98;;;;;;;7.65;100.00;100725.91;5107919;27;20466;-73
2024/03/20 01:36:01;;;;;;;23.67;13.25;;;;;;;7.59;100.00;100720.81;5098086;27;20074;-70
2024/03/20 01:38:28;;;;;;;21.00;13.80;;;;;;;7.55;100.00;100720.06;5110780;27;20050;-74
2024/03/20 01:40:55;;;;;;;27.85;15.23;;;;;;;7.52;100.00;100709.63;5097976;27;20035;-71
2024/03/20 01:43:21;;;;;;;23.85;15.07;;;;;;;7.38;100.00;100690.72;5079031;27;20478;-72
2024/03/20 01:45:50;;;;;;;24.98;15.18;;;;;;;7.48;100.00;100713.25;5097209;27;20043;-73
2024/03/20 01:48:17;;;;;;;23.65;14.75;;;;;;;7.50;100.00;100710.56;5114248;27;20123;-71
2024/03/20 01:50:45;;;;;;;24.05;14.75;;;;;;;7.55;100.00;100711.31;5096231;27;20500;-72
2024/03/20 01:53:14;;;;;;;23.80;16.13;;;;;;;7.44;100.00;100685.25;5110683;27;20139;-73
2024/03/20 01:55:43;;;;;;;28.35;16.40;;;;;;;7.52;100.00;100712.25;5092758;27;20505;-71
2024/03/20 01:58:10;;;;;;;24.90;16.25;;;;;;;7.50;100.00;100707.94;5094019;27;20074;-73
2024/03/20 02:00:36;;;;;;;27.02;16.88;;;;;;;7.46;100.00;100709.78;5109452;27;20508;-71
2024/03/20 02:03:05;;;;;;;27.10;16.42;;;;;;;7.42;100.00;100712.53;5091184;27;20070;-70
2024/03/20 02:05:33;;;;;;;28.83;17.10;;;;;;;7.40;100.00;100707.31;5099432;27;20104;-70
2024/03/20 02:07:59;;;;;;;30.60;17.48;;;;;;;7.40;100.00;100712.56;5113597;27;20854;-74
2024/03/20 02:10:26;;;;;;;26.48;17.85;;;;;;;7.37;100.00;100708.28;5094852;27;20469;-70
2024/03/20 02:13:02;;;;;;;28.45;16.15;;;;;;;7.22;100.00;100676.25;5105987;27;20061;-70
2024/03/20 02:15:28;;;;;;;28.98;17.10;;;;;;;7.30;100.00;100706.72;5112993;27;20059;-70
2024/03/20 02:17:56;;;;;;;31.27;17.98;;;;;;;7.35;100.00;100706.59;5102288;27;20039;-70
2024/03/20 02:20:24;;;;;;;27.70;17.67;;;;;;;7.33;100.00;100704.00;5111184;27;20075;-74
2024/03/20 02:22:52;;;;;;;29.60;17.50;;;;;;;7.32;100.00;100704.91;5094418;27;20098;-70
2024/03/20 02:25:25;;;;;;;29.60;18.15;;;;;;;7.16;100.00;100682.56;5116687;27;20126;-70
2024/03/20 02:27:52;;;;;;;27.92;17.40;;;;;;;7.30;100.00;100704.09;5091650;27;20059;-72
2024/03/20 02:30:19;;;;;;;31.30;18.65;;;;;;;7.29;100.00;100699.72;5110255;27;20078;-71
2024/03/20 02:32:45;;;;;;;31.23;18.23;;;;;;;7.33;100.00;100706.66;5089741;27;20070;-72
2024/03/20 02:35:12;;;;;;;34.88;18.73;;;;;;;7.33;100.00;100700.50;5112664;27;20066;-70
2024/03/20 02:37:41;;;;;;;32.35;17.60;;;;;;;7.33;100.00;100708.41;5062357;27;20131;-71
2024/03/20 02:40:10;;;;;;;29.10;18.33;;;;;;;7.30;100.00;100704.09;5094216;27;20077;-72
2024/03/20 02:42:37;;;;;;;33.63;19.23;;;;;;;7.30;100.00;100708.50;5090196;27;20156;-70
2024/03/20 02:45:04;;;;;;;36.10;18.77;;;;;;;7.31;100.00;100711.09;5107862;27;20165;-73
2024/03/20 02:47:31;;;;;;;32.67;18.85;;;;;;;7.31;100.00;100705.81;5090604;27;20044;-70
2024/03/20 02:49:58;;;;;;;34.58;18.58;;;;;;;7.30;100.00;100700.59;5093009;27;20150;-71
2024/03/20 02:52:26;;;;;;;35.25;20.30;;;;;;;7.31;100.00;100710.22;5090140;27;20062;-70
2024/03/20 02:54:52;;;;;;;35.42;20.13;;;;;;;7.29;100.00;100718.16;5089162;27;20615;-70
2024/03/20 02:57:20;;;;;;;31.00;18.23;;;;;;;7.31;100.00;100719.00;5108326;27;20079;-70
2024/03/20 02:59:47;;;;;;;36.17;20.25;;;;;;;7.30;100.00;100717.25;5114493;27;20134;-70
2024/03/20 03:02:14;;;;;;;38.00;19.92;;;;;;;7.32;100.00;100710.19;5104023;27;20537;-72
2024/03/20 03:04:41;;;;;;;30.60;18.27;;;;;;;7.33;100.00;100703.16;5109322;27;20476;-71
2024/03/20 03:07:08;;;;;;;30.52;19.05;;;;;;;7.30;100.00;100709.34;5110774;27;20078;-70
2024/03/20 03:09:36;;;;;;;31.20;18.15;;;;;;;7.33;100.00;100717.19;5105380;27;20127;-70
2024/03/20 03:12:04;;;;;;;34.80;19.58;;;;;;;7.30;100.00;100705.88;5089993;27;20075;-73
2024/03/20 03:14:33;;;;;;;35.47;19.70;;;;;;;7.32;100.00;100711.94;5089311;27;20130;-70
2024/03/20 03:16:59;;;;;;;33.47;18.27;;;;;;;7.29;100.00;100712.91;5109378;27;20058;-70
2024/03/20 03:19:29;;;;;;;34.42;19.45;;;;;;;7.30;100.00;100713.75;5094801;27;20074;-70
2024/03/20 03:21:57;;;;;;;31.08;18.75;;;;;;;7.30;100.00;100711.13;5107414;27;20524;-72
2024/03/20 03:24:24;;;;;;;34.17;20.08;;;;;;;7.30;100.00;100714.63;5108952;27;20136;-69
2024/03/20 03:26:51;;;;;;;34.05;20.50;;;;;;;7.31;100.00;100712.84;5070998;27;20066;-70
2024/03/20 03:29:17;;;;;;;35.03;19.17;;;;;;;7.28;100.00;100715.56;5091614;27;20067;-70
2024/03/20 03:31:48;;;;;;;32.35;18.98;;;;;;;7.25;100.00;100713.88;5077454;27;20092;-75
2024/03/20 03:34:15;;;;;;;35.55;19.65;;;;;;;7.16;100.00;100701.00;5093901;27;20110;-71
2024/03/20 03:36:42;;;;;;;36.03;19.25;;;;;;;7.22;100.00;100716.63;5107529;27;20062;-70
2024/03/20 03:39:10;;;;;;;34.33;20.13;;;;;;;7.18;100.00;100725.50;5103871;27;20062;-71
2024/03/20 03:41:37;;;;;;;32.17;19.30;;;;;;;7.19;100.00;100723.75;5075069;27;20051;-78
2024/03/20 03:44:04;;;;;;;35.08;19.55;;;;;;;7.19;100.00;100726.38;5090614;27;20118;-71
2024/03/20 03:46:31;;;;;;;33.85;19.92;;;;;;;7.17;100.00;100731.69;5075752;28;20080;-71
2024/03/20 03:48:59;;;;;;;36.97;19.60;;;;;;;7.14;100.00;100721.22;5089562;27;20505;-72
2024/03/20 03:51:26;;;;;;;29.88;18.40;;;;;;;7.09;100.00;100722.25;5091764;27;20146;-71
2024/03/20 03:53:54;;;;;;;28.65;18.35;;;;;;;7.07;100.00;100721.47;5088450;27;20079;-72
2024/03/20 03:56:20;;;;;;;31.60;17.92;;;;;;;7.04;100.00;100727.66;5108724;27;20564;-71
2024/03/20 03:58:47;;;;;;;29.55;17.50;;;;;;;7.01;100.00;100722.47;5108715;27;20486;-70
2024/03/20 04:01:14;;;;;;;31.02;18.85;;;;;;;6.99;100.00;100724.28;5108288;27;20071;-73
2024/03/20 04:03:41;;;;;;;31.05;18.73;;;;;;;6.98;100.00;100727.81;5088246;27;20123;-70
2024/03/20 04:06:09;;;;;;;32.40;18.58;;;;;;;6.96;100.00;100724.34;5093825;27;20503;-71
2024/03/20 04:08:38;;;;;;;30.95;18.38;;;;;;;6.95;100.00;100712.97;5108161;27;20122;-73
2024/03/20 04:11:05;;;;;;;30.13;18.95;;;;;;;6.95;100.00;100725.25;5096781;28;20138;-72
2024/03/20 04:13:32;;;;;;;34.05;19.42;;;;;;;6.92;100.00;100720.97;5087469;28;20126;-70
2024/03/20 04:16:00;;;;;;;30.95;19.10;;;;;;;6.89;100.00;100723.69;5078889;27;20072;-71
2024/03/20 04:18:27;;;;;;;32.15;19.15;;;;;;;6.87;100.00;100728.13;5090064;28;20469;-71
2024/03/20 04:20:54;;;;;;;30.90;18.92;;;;;;;6.85;100.00;100729.06;5092565;27;20054;-72
2024/03/20 04:23:23;;;;;;;31.98;18.15;;;;;;;6.82;100.00;100732.63;5106182;28;20576;-70
2024/03/20 04:25:49;;;;;;;28.95;18.50;;;;;;;6.84;100.00;100733.47;5104401;28;20079;-70
2024/03/20 04:28:16;;;;;;;31.35;18.63;;;;;;;6.85;100.00;100726.44;5090297;28;20070;-74
2024/03/20 04:30:43;;;;;;;32.42;19.23;;;;;;;6.88;100.00;100721.09;5090423;28;20039;-71
2024/03/20 04:33:10;;;;;;;35.28;19.10;;;;;;;6.82;100.00;100719.47;5088686;28;20128;-70
2024/03/20 04:35:37;;;;;;;29.00;17.83;;;;;;;6.80;100.00;100726.53;5090219;28;20068;-71
2024/03/20 04:38:05;;;;;;;31.17;17.98;;;;;;;6.74;100.00;100713.56;5089732;27;20047;-70
2024/03/20 04:40:34;;;;;;;31.52;18.20;;;;;;;6.74;100.00;100725.84;5092360;28;20067;-70
2024/03/20 04:43:03;;;;;;;28.27;18.23;;;;;;;6.69;100.00;100726.81;5086927;28;20046;-69
2024/03/20 04:45:29;;;;;;;33.22;19.45;;;;;;;6.66;100.00;100731.28;5090724;28;20079;-70
2024/03/20 04:47:56;;;;;;;33.60;18.80;;;;;;;6.65;100.00;100729.56;5093039;28;20114;-70
2024/03/20 04:50:23;;;;;;;33.38;18.98;;;;;;;6.63;100.00;100734.00;5076760;28;20564;-70
2024/03/20 04:52:50;;;;;;;32.97;18.77;;;;;;;6.59;100.00;100733.25;5085575;27;20069;-69
2024/03/20 04:55:17;;;;;;;34.00;19.30;;;;;;;6.56;100.00;100735.94;5109255;28;20134;-70
2024/03/20 04:57:44;;;;;;;29.67;18.08;;;;;;;6.55;100.00;100738.59;5092954;28;20066;-71
2024/03/20 05:00:15;;;;;;;29.63;18.92;;;;;;;6.48;100.00;100723.88;5094568;27;20059;-71
2024/03/20 05:02:42;;;;;;;;;;;;;;;6.51;100.00;100736.94;5090912;28;20071;-71
2024/03/20 05:05:09;;;;;;;34.92;19.10;;;;;;;6.49;100.00;100742.25;5107888;27;19962;-70
2024/03/20 05:07:36;;;;;;;33.78;20.45;;;;;;;6.47;100.00;100740.53;5094223;27;20081;-70
2024/03/20 05:10:04;;;;;;;34.13;19.40;;;;;;;6.45;100.00;100745.88;5091628;28;20504;-74
2024/03/20 05:12:32;;;;;;;34.17;19.30;;;;;;;6.44;100.00;100745.91;5107182;28;20093;-75
2024/03/20 05:15:02;;;;;;;35.38;20.02;;;;;;;6.42;100.00;100738.06;5112848;27;20556;-70
2024/03/20 05:17:30;;;;;;;35.85;20.13;;;;;;;6.43;100.00;100736.28;5106392;27;20043;-71
2024/03/20 05:19:59;;;;;;;33.95;19.55;;;;;;;6.35;100.00;100723.31;5113922;27;20043;-70
2024/03/20 05:22:25;;;;;;;36.20;19.58;;;;;;;6.43;100.00;100745.03;5112881;27;20098;-72
2024/03/20 05:24:52;;;;;;;33.45;19.80;;;;;;;6.42;100.00;100748.56;5111201;27;20031;-71
2024/03/20 05:27:18;;;;;;;36.60;20.52;;;;;;;6.48;100.00;100742.28;5110048;27;20125;-70
2024/03/20 05:29:45;;;;;;;36.47;20.05;;;;;;;6.52;100.00;100736.03;5120623;27;20662;-71
2024/03/20 05:32:13;;;;;;;35.80;19.70;;;;;;;6.57;100.00;100742.06;5105387;27;20845;-71
2024/03/20 05:34:40;;;;;;;34.72;19.67;;;;;;;6.60;100.00;100742.00;5112849;27;20571;-71
2024/03/20 05:37:05;;;;;;;34.00;20.00;;;;;;;6.63;100.00;100741.91;5095195;27;20130;-71
2024/03/20 05:39:33;;;;;;;31.10;20.25;;;;;;;6.63;100.00;100748.03;5115509;27;20035;-70
2024/03/20 05:42:00;;;;;;;35.67;21.05;;;;;;;6.64;100.00;100747.13;5094583;27;20116;-71
2024/03/20 05:44:27;;;;;;;36.13;20.88;;;;;;;6.53;100.00;100738.63;5110358;27;20069;-70
2024/03/20 05:46:53;;;;;;;34.47;20.75;;;;;;;6.64;100.00;100748.88;5094608;27;20088;-71
2024/03/20 05:49:22;;;;;;;38.40;20.45;;;;;;;6.31;100.00;100693.56;5110644;27;20166;-72
2024/03/20 05:51:48;;;;;;;35.55;20.92;;;;;;;6.68;100.00;100756.69;5095485;27;20062;-70
2024/03/20 05:54:15;;;;;;;36.35;20.52;;;;;;;6.73;100.00;100748.66;5091158;27;20120;-71
2024/03/20 05:56:41;;;;;;;36.97;20.25;;;;;;;6.76;100.00;100751.22;5110025;27;20039;-72
2024/03/20 05:59:11;;;;;;;35.55;20.75;;;;;;;6.79;100.00;100750.25;5095644;27;20068;-71
2024/03/20 06:01:38;;;;;;;34.53;21.10;;;;;;;6.83;100.00;100751.91;5097353;27;20413;-70
2024/03/20 06:04:05;;;;;;;33.70;20.05;;;;;;;6.86;100.00;100749.22;5105812;27;20751;-70
2024/03/20 06:06:34;;;;;;;36.50;20.63;;;;;;;6.91;100.00;100749.97;5110654;27;20480;-70
2024/03/20 06:09:00;;;;;;;32.75;19.42;;;;;;;6.99;100.00;100755.88;5092497;27;20063;-71
2024/03/20 06:11:43;;;;;;;36.15;21.08;;;;;;;7.09;100.00;100752.09;5099134;27;20075;-73
2024/03/20 06:14:12;;;;;;;30.50;18.88;;;;;;;7.15;100.00;100751.06;5106229;27;20055;-70
2024/03/20 06:16:40;;;;;;;33.05;19.80;;;;;;;6.58;100.00;100644.69;5112155;27;20043;-71
2024/03/20 06:19:07;;;;;;;32.75;19.77;;;;;;;7.23;100.00;100744.69;5108427;27;20069;-70
2024/03/20 06:21:34;;;;;;;33.60;19.55;;;;;;;7.35;100.00;100748.75;5077592;27;20039;-70
2024/03/20 06:24:02;;;;;;;34.20;20.75;;;;;;;7.43;100.00;100752.03;5109554;27;20122;-71
2024/03/20 06:26:28;;;;;;;35.53;21.13;;;;;;;7.48;100.00;100755.41;5095357;27;20068;-70
2024/03/20 06:28:55;;;;;;;35.80;20.80;;;;;;;7.59;100.00;100758.56;5081632;27;20043;-70
2024/03/20 06:31:21;;;;;;;35.58;21.20;;;;;;;7.66;100.00;100759.28;5091525;27;20571;-71
2024/03/20 06:33:48;;;;;;;34.28;20.23;;;;;;;7.70;100.00;100763.56;5110528;27;20145;-71
2024/03/20 06:36:14;;;;;;;35.28;20.35;;;;;;;7.64;100.00;100737.38;5108638;27;20040;-72
2024/03/20 06:38:42;;;;;;;33.13;19.77;;;;;;;7.88;100.00;100763.00;5118324;27;20523;-72
2024/03/20 06:41:13;;;;;;;30.88;19.02;;;;;;;7.92;100.00;100764.63;5110194;27;20049;-69
2024/03/20 06:43:40;;;;;;;30.83;19.95;;;;;;;7.97;100.00;100760.09;5088037;27;20132;-70
2024/03/20 06:46:06;;;;;;;30.17;19.02;;;;;;;8.00;100.00;100765.28;5094148;27;20063;-72
2024/03/20 06:48:33;;;;;;;30.77;18.70;;;;;;;8.01;100.00;100767.00;5104689;27;20088;-72
2024/03/20 06:50:59;;;;;;;32.15;18.85;;;;;;;8.01;100.00;100763.50;5109993;27;20066;-72
2024/03/20 06:53:27;;;;;;;30.40;18.23;;;;;;;8.11;100.00;100767.56;5091819;27;20058;-72
2024/03/20 06:55:55;;;;;;;28.05;17.95;;;;;;;8.13;100.00;100780.72;5090933;27;20126;-71
2024/03/20 06:58:22;;;;;;;33.40;17.73;;;;;;;8.15;100.00;100785.03;5104110;28;20071;-70
2024/03/20 07:00:48;;;;;;;30.02;18.00;;;;;;;8.05;100.00;100765.97;5107030;27;20046;-70
2024/03/20 07:03:16;;;;;;;27.55;18.23;;;;;;;8.18;100.00;100784.97;5084757;27;20042;-71
2024/03/20 07:05:42;;;;;;;28.40;17.75;;;;;;;8.21;100.00;100779.56;5092975;27;20122;-70
2024/03/20 07:08:09;;;;;;;29.83;18.15;;;;;;;8.31;100.00;100786.28;5093070;27;20417;-70
2024/03/20 07:10:36;;;;;;;30.85;17.98;;;;;;;8.43;100.00;100785.94;5112253;27;20777;-73
2024/03/20 07:13:05;;;;;;;30.38;18.20;;;;;;;8.66;100.00;100786.94;5100478;27;20752;-74
2024/03/20 07:15:32;;;;;;;29.58;18.17;;;;;;;8.86;100.00;100788.94;5110523;27;20580;-71
2024/03/20 07:17:59;;;;;;;27.13;17.02;;;;;;;9.09;100.00;100781.97;5075831;27;20496;-70
2024/03/20 07:20:25;;;;;;;28.83;17.60;;;;;;;9.32;100.00;100788.22;5081020;27;20082;-69
2024/03/20 07:22:52;;;;;;;26.65;17.13;;;;;;;9.51;100.00;100791.91;5089802;27;20070;-70
2024/03/20 07:25:18;;;;;;;27.08;16.75;;;;;;;9.66;100.00;100795.78;5089515;27;20126;-70
2024/03/20 07:27:45;;;;;;;28.85;18.08;;;;;;;9.64;100.00;100774.69;5111238;27;20176;-70
2024/03/20 07:30:14;;;;;;;27.52;16.42;;;;;;;9.79;100.00;100779.41;5112944;27;20043;-70
2024/03/20 07:32:41;;;;;;;29.70;17.10;;;;;;;9.91;100.00;100777.22;5109554;27;20115;-71
2024/03/20 07:35:07;;;;;;;28.60;17.25;;;;;;;10.04;100.00;100781.13;5107733;27;20043;-72
2024/03/20 07:37:36;;;;;;;29.02;16.63;;;;;;;10.27;100.00;100781.09;5088029;27;20063;-70
2024/03/20 07:40:04;;;;;;;26.67;16.13;;;;;;;10.53;100.00;100780.94;5096769;27;20084;-71
2024/03/20 07:42:31;;;;;;;25.20;17.52;;;;;;;10.64;100.00;100771.69;5074641;27;20073;-74
2024/03/20 07:44:57;;;;;;;24.55;16.25;;;;;;;10.75;100.00;100780.91;5100255;27;20483;-74
2024/03/20 07:47:26;;;;;;;25.50;16.35;;;;;;;10.88;100.00;100783.91;5106436;27;20050;-70
2024/03/20 07:49:51;;;;;;;24.23;15.45;;;;;;;11.09;100.00;100779.50;5109490;27;20051;-72
2024/03/20 07:52:18;;;;;;;22.80;14.75;;;;;;;11.35;100.00;100778.34;5095375;27;20600;-71
2024/03/20 07:54:44;;;;;;;26.25;15.65;;;;;;;11.50;100.00;100785.63;5106397;27;20104;-70
2024/03/20 07:57:11;;;;;;;23.25;14.63;;;;;;;11.57;100.00;100789.75;5102673;27;20777;-73
2024/03/20 07:59:37;;;;;;;23.15;14.20;;;;;;;11.58;100.00;100796.78;5095932;28;20083;-71
2024/03/20 08:02:04;;;;;;;25.52;14.85;;;;;;;11.57;100.00;100798.56;5091410;28;20439;-73
2024/03/20 08:04:32;;;;;;;22.27;14.73;;;;;;;11.78;100.00;100801.22;5102141;27;20169;-72
2024/03/20 08:06:59;;;;;;;23.02;14.63;;;;;;;11.81;100.00;100801.06;5107772;28;20492;-71
2024/03/20 08:09:25;;;;;;;22.58;14.05;;;;;;;11.79;100.00;100806.47;5090177;28;20047;-70
2024/03/20 08:11:54;;;;;;;20.08;13.60;;;;;;;11.85;100.00;100795.53;5113216;28;20039;-70
2024/03/20 08:14:19;;;;;;;21.30;14.15;;;;;;;12.06;100.00;100803.47;5072646;27;20139;-70
2024/03/20 08:16:47;;;;;;;23.50;14.20;;;;;;;12.09;100.00;100804.19;5106691;27;20047;-73
2024/03/20 08:19:13;;;;;;;21.63;13.95;;;;;;;12.16;100.00;100810.91;5110150;27;20066;-71
2024/03/20 08:21:41;;;;;;;21.80;14.93;;;;;;;12.24;100.00;100798.16;5106280;28;20039;-69
2024/03/20 08:24:08;;;;;;;23.02;15.02;;;;;;;11.29;100.00;100612.47;5089338;28;20047;-75
2024/03/20 08:26:35;;;;;;;19.08;13.65;;;;;;;12.36;100.00;100801.16;5090127;28;20039;-70
2024/03/20 08:29:01;;;;;;;21.30;14.90;;;;;;;12.27;100.00;100802.47;5091882;27;20066;-70
2024/03/20 08:31:28;;;;;;;20.40;14.05;;;;;;;12.29;100.00;100804.09;5107951;28;20043;-72
2024/03/20 08:33:55;;;;;;;20.08;13.70;;;;;;;12.44;100.00;100799.81;5072111;28;20554;-70
2024/03/20 08:36:22;;;;;;;20.65;13.32;;;;;;;12.65;100.00;100798.78;5089302;28;20501;-71
2024/03/20 08:38:50;;;;;;;22.77;13.88;;;;;;;13.03;100.00;100796.03;5090844;27;20052;-71
2024/03/20 08:41:17;;;;;;;19.23;13.52;;;;;;;13.40;100.00;100796.81;5108796;28;20082;-75
2024/03/20 08:43:44;;;;;;;18.42;12.98;;;;;;;13.32;100.00;100736.06;5102253;27;20520;-70
2024/03/20 08:46:11;;;;;;;18.98;12.57;;;;;;;13.78;100.00;100785.00;5088289;28;20035;-70
2024/03/20 08:48:36;;;;;;;17.50;12.55;;;;;;;13.67;100.00;100793.59;5110560;27;20051;-70
2024/03/20 08:51:05;;;;;;;21.00;13.07;;;;;;;13.48;100.00;100763.56;5082646;27;20046;-71
2024/03/20 08:53:32;;;;;;;20.73;13.00;;;;;;;13.75;100.00;100786.97;5106565;27;20119;-73
2024/03/20 08:56:00;;;;;;;18.33;13.10;;;;;;;13.78;100.00;100793.00;5112116;27;20402;-70
2024/03/20 08:58:26;;;;;;;21.15;12.65;;;;;;;13.79;100.00;100793.84;5096648;27;20488;-71
2024/03/20 09:00:53;;;;;;;20.65;14.23;;;;;;;13.63;100.00;100788.50;5112726;27;20039;-71
2024/03/20 09:03:19;;;;;;;21.88;13.68;;;;;;;13.60;100.00;100796.63;5092618;27;20571;-72
2024/03/20 09:05:46;;;;;;;18.55;13.00;;;;;;;13.65;100.00;100789.28;5095677;27;20571;-73
2024/03/20 09:08:13;;;;;;;18.45;12.70;;;;;;;13.66;100.00;100794.53;5112329;27;20074;-70
2024/03/20 09:10:40;;;;;;;18.85;12.63;;;;;;;13.60;100.00;100759.38;5096344;27;20043;-70
2024/03/20 09:13:07;;;;;;;19.77;12.75;;;;;;;13.90;100.00;100788.81;5092717;27;20047;-70
2024/03/20 09:15:34;;;;;;;18.23;12.52;;;;;;;13.90;100.00;100780.81;5106787;27;20110;-70
2024/03/20 09:18:00;;;;;;;18.13;12.57;;;;;;;13.94;100.00;100780.56;5100099;27;20058;-69
2024/03/20 09:20:30;;;;;;;15.80;11.68;;;;;;;14.12;100.00;100785.84;5088531;27;20073;-71
2024/03/20 09:22:57;;;;;;;19.42;11.65;;;;;;;14.11;100.00;100753.03;5123531;27;20065;-70
2024/03/20 09:25:24;;;;;;;16.38;11.00;;;;;;;14.28;100.00;100760.06;5111943;27;20043;-73
2024/03/20 09:27:49;;;;;;;17.73;11.73;;;;;;;14.48;100.00;100778.44;5133044;27;20412;-70
2024/03/20 09:30:19;;;;;;;19.08;12.40;;;;;;;14.51;100.00;100770.28;5098125;27;20063;-70
2024/03/20 09:32:46;;;;;;;17.08;11.75;;;;;;;14.58;100.00;100774.34;5110647;27;20067;-70
2024/03/20 09:35:14;;;;;;;18.20;12.07;;;;;;;14.72;100.00;100765.53;5096357;27;20087;-71
2024/03/20 09:37:41;;;;;;;18.75;11.38;;;;;;;14.86;100.00;100768.25;5114839;27;20047;-71
2024/03/20 09:40:10;;;;;;;18.95;12.40;;;;;;;14.97;100.00;100763.13;5093970;27;20595;-72
2024/03/20 09:42:38;;;;;;;18.10;12.57;;;;;;;15.04;100.00;100766.31;5106548;27;20043;-71
2024/03/20 09:45:06;;;;;;;18.73;13.13;;;;;;;14.97;100.00;100740.94;5062195;27;20123;-70
2024/03/20 09:47:35;;;;;;;15.38;12.20;;;;;;;15.19;100.00;100756.53;5105837;27;20426;-70
2024/03/20 09:50:03;;;;;;;15.73;11.40;;;;;;;15.35;100.00;100763.50;5092623;27;20067;-71
2024/03/20 09:52:29;;;;;;;18.83;11.45;;;;;;;15.52;99.15;100766.97;5096798;27;20114;-71
2024/03/20 09:54:57;;;;;;;17.77;10.98;;;;;;;15.65;98.37;100758.13;5095057;27;20524;-70
2024/03/20 09:57:24;;;;;;;17.58;12.23;;;;;;;15.75;92.31;100756.59;5107949;27;20069;-71
2024/03/20 09:59:52;;;;;;;17.88;11.38;;;;;;;15.62;92.18;100722.75;5093056;27;20626;-70
2024/03/20 10:02:21;;;;;;;19.42;12.68;;;;;;;15.82;89.63;100750.88;5090092;27;20134;-70
2024/03/20 10:04:51;;;;;;;21.60;13.35;;;;;;;15.84;89.32;100754.31;5089659;27;20059;-71
2024/03/20 10:07:17;;;;;;;19.53;12.43;;;;;;;15.78;88.79;100734.19;5110729;27;20123;-72
2024/03/20 10:09:45;;;;;;;18.15;12.68;;;;;;;15.84;88.73;100740.97;5096844;27;20552;-72
2024/03/20 10:12:12;;;;;;;18.58;12.82;;;;;;;15.82;86.73;100745.53;5094098;27;20105;-72
2024/03/20 10:14:40;;;;;;;15.00;11.55;;;;;;;15.83;89.88;100740.09;5099968;27;20527;-73
2024/03/20 10:17:11;;;;;;;16.88;12.02;;;;;;;15.99;89.02;100746.19;5093466;27;20512;-70
2024/03/20 10:19:39;;;;;;;16.93;12.17;;;;;;;16.10;86.61;100743.69;5084817;27;20042;-71
2024/03/20 10:22:06;;;;;;;19.90;12.75;;;;;;;16.05;82.73;100729.78;5075464;27;20077;-73
2024/03/20 10:24:34;;;;;;;18.73;12.80;;;;;;;16.13;84.20;100743.47;5090560;27;20082;-75
2024/03/20 10:27:02;;;;;;;19.52;13.20;;;;;;;16.07;82.71;100733.19;5106875;27;20058;-71
2024/03/20 10:29:30;;;;;;;17.60;13.10;;;;;;;16.06;83.10;100742.16;5094836;27;20085;-71
2024/03/20 10:31:56;;;;;;;19.27;13.13;;;;;;;16.02;84.29;100732.66;5105910;27;20114;-71
2024/03/20 10:34:26;;;;;;;17.05;12.88;;;;;;;16.08;82.69;100734.03;5105425;27;20043;-69
2024/03/20 10:36:53;;;;;;;21.23;12.63;;;;;;;16.23;83.36;100743.72;5089119;27;20069;-70
2024/03/20 10:39:24;;;;;;;17.52;12.70;;;;;;;16.28;80.34;100722.06;5093156;27;20070;-71
2024/03/20 10:41:50;;;;;;;16.92;12.05;;;;;;;16.52;79.59;100727.63;5106427;27;20063;-70
2024/03/20 10:44:20;;;;;;;18.27;12.85;;;;;;;16.67;77.25;100734.66;5071376;27;20822;-73
2024/03/20 10:46:48;;;;;;;16.67;11.45;;;;;;;16.74;77.20;100727.94;5110747;27;20520;-71
2024/03/20 10:49:20;;;;;;;17.83;11.40;;;;;;;16.90;75.92;100727.75;5110823;27;20066;-72
2024/03/20 10:51:48;;;;;;;16.73;12.20;;;;;;;17.04;76.73;100736.53;5092547;27;20066;-72
2024/03/20 10:54:18;;;;;;;19.20;12.60;;;;;;;17.13;74.15;100724.38;5090070;27;20404;-72
2024/03/20 10:56:48;;;;;;;19.02;13.30;;;;;;;17.24;72.56;100727.16;5088417;27;20177;-70
2024/03/20 10:59:16;;;;;;;15.63;12.00;;;;;;;17.03;71.15;100670.63;5108165;27;20061;-70
2024/03/20 11:01:56;;;;;;;19.45;11.93;;;;;;;17.48;69.01;100721.88;5095686;27;20068;-73
2024/03/20 11:04:41;;;;;;;16.23;10.63;;;;;;;17.48;68.05;100724.56;5101548;27;20584;-72
2024/03/20 11:07:35;;;;;;;14.38;10.45;;;;;;;17.50;69.97;100723.50;5092090;27;20130;-70